Time;durP1;ratioP1;P1;durP2;ratioP2;P2;SDS_P1;SDS_P2;PMS_P1;PMS_P2;Temp;Humidity;BMP_temperature;BMP_pressure;BME280_temperature;BME280_humidity;BME280_pressure;Samples;Min_cycle;Max_cycle;Signal;HPM_P1;HPM_P2
2023/03/31 00:01:25;;;;;;;8.10;4.40;;;;;;;11.72;74.15;95203.06;6221108;23;20931;-85
2023/03/31 00:04:02;;;;;;;7.50;3.97;;;;;;;11.72;73.84;95199.69;6222684;23;20173;-87
2023/03/31 00:06:29;;;;;;;5.73;3.80;;;;;;;11.77;74.10;95198.13;6222185;23;20493;-85
2023/03/31 00:09:03;;;;;;;5.10;3.90;;;;;;;11.81;73.71;95192.59;6222259;23;20239;-86
2023/03/31 00:11:29;;;;;;;5.50;4.10;;;;;;;11.80;73.50;95186.63;6222744;23;20197;-85
2023/03/31 00:13:56;;;;;;;6.10;4.13;;;;;;;11.82;73.30;95182.09;6222209;23;20583;-87
2023/03/31 00:16:23;;;;;;;4.67;4.13;;;;;;;11.83;73.28;95172.56;6222497;23;20652;-87
2023/03/31 00:18:51;;;;;;;5.17;4.00;;;;;;;11.84;72.94;95177.53;6223376;23;20179;-87
2023/03/31 00:21:32;;;;;;;6.70;4.30;;;;;;;11.82;72.55;95166.59;6222706;23;20197;-85
2023/03/31 00:24:02;;;;;;;6.30;3.77;;;;;;;11.86;72.62;95167.81;6222261;23;20197;-86
2023/03/31 00:26:29;;;;;;;5.40;3.97;;;;;;;11.77;72.18;95166.38;6221260;23;20177;-86
2023/03/31 00:28:57;;;;;;;6.17;4.27;;;;;;;11.85;72.78;95161.06;6220983;23;20205;-86
2023/03/31 00:31:24;;;;;;;5.27;4.70;;;;;;;11.88;72.33;95158.09;6221739;23;20236;-87
2023/03/31 00:33:53;;;;;;;6.67;4.60;;;;;;;11.90;72.25;95157.91;6222230;23;20193;-88
2023/03/31 00:36:26;;;;;;;9.03;4.80;;;;;;;11.94;72.14;95154.72;6222558;23;20177;-86
2023/03/31 00:38:55;;;;;;;7.23;4.57;;;;;;;11.96;72.01;95145.00;6222598;23;20158;-86
2023/03/31 00:41:26;;;;;;;5.00;4.10;;;;;;;11.96;72.04;95141.63;6221553;23;20197;-86
2023/03/31 00:44:17;;;;;;;5.83;4.20;;;;;;;11.93;71.49;95145.41;6222889;23;20177;-87
2023/03/31 00:46:52;;;;;;;4.43;4.00;;;;;;;11.94;71.47;95122.97;6222600;23;20166;-85
2023/03/31 00:49:28;;;;;;;7.43;4.17;;;;;;;11.92;71.08;95120.63;6222427;23;20150;-87
2023/03/31 00:52:02;;;;;;;6.03;4.23;;;;;;;11.93;71.30;95117.00;6221682;23;20204;-85
2023/03/31 00:54:32;;;;;;;5.13;4.20;;;;;;;11.96;71.15;95116.63;6223142;23;20162;-88
2023/03/31 00:57:02;;;;;;;7.20;4.10;;;;;;;11.99;71.56;95118.81;6222081;23;20208;-85
2023/03/31 00:59:31;;;;;;;5.03;4.03;;;;;;;11.99;70.82;95113.66;6223131;23;20209;-87
2023/03/31 01:02:03;;;;;;;4.67;4.10;;;;;;;12.01;70.88;95111.69;6221133;23;20198;-87
2023/03/31 01:04:35;;;;;;;5.27;4.17;;;;;;;12.04;71.20;95108.72;6222049;23;20200;-86
2023/03/31 01:07:08;;;;;;;5.63;3.97;;;;;;;12.05;70.62;95107.72;6222263;23;20162;-87
2023/03/31 01:09:37;;;;;;;6.07;4.00;;;;;;;12.09;71.16;95101.19;6222660;23;20174;-86
2023/03/31 01:12:10;;;;;;;7.33;4.23;;;;;;;12.09;70.93;95093.44;6221094;23;20197;-86
2023/03/31 01:14:37;;;;;;;6.17;4.17;;;;;;;12.09;71.02;95084.91;6221500;23;20166;-86
2023/03/31 01:17:08;;;;;;;6.10;3.77;;;;;;;12.08;70.63;95083.31;6221763;23;20285;-87
2023/03/31 01:19:53;;;;;;;6.87;4.43;;;;;;;12.09;70.95;95079.75;6221472;23;20217;-86
2023/03/31 01:22:59;;;;;;;6.77;4.73;;;;;;;12.08;70.73;95073.00;6220317;23;20197;-86
2023/03/31 01:26:08;;;;;;;6.00;3.70;;;;;;;12.12;70.35;95070.81;6221479;23;20213;-87
2023/03/31 01:28:41;;;;;;;6.73;3.97;;;;;;;12.13;70.96;95060.28;6221865;23;20249;-87
2023/03/31 01:31:42;;;;;;;6.73;4.33;;;;;;;12.07;70.15;95050.75;6221782;23;20288;-86
2023/03/31 01:34:36;;;;;;;7.77;4.43;;;;;;;12.02;70.76;95043.63;6221051;23;20197;-86
2023/03/31 01:37:42;;;;;;;6.20;4.00;;;;;;;12.00;70.68;95037.06;6221678;23;20161;-88
2023/03/31 01:40:34;;;;;;;5.60;3.87;;;;;;;11.94;70.65;95036.06;6220294;23;20628;-87
2023/03/31 01:43:09;;;;;;;6.97;4.30;;;;;;;11.95;70.84;95034.28;6215107;23;20665;-85
2023/03/31 01:45:48;;;;;;;6.00;4.37;;;;;;;11.95;70.32;95035.06;6220565;23;20164;-86
2023/03/31 01:48:17;;;;;;;6.03;4.00;;;;;;;11.95;70.78;95029.09;6220669;23;20213;-87
2023/03/31 01:50:48;;;;;;;4.73;4.30;;;;;;;11.91;70.38;95033.91;6220257;23;20193;-85
2023/03/31 01:53:20;;;;;;;4.67;3.90;;;;;;;11.85;70.24;95033.88;6220820;23;20193;-88
2023/03/31 01:55:55;;;;;;;5.50;4.07;;;;;;;11.82;69.95;95026.53;6220792;23;20170;-86
2023/03/31 01:58:26;;;;;;;8.07;4.10;;;;;;;11.76;69.87;95018.59;6222213;23;20160;-86
2023/03/31 02:01:00;;;;;;;5.40;4.27;;;;;;;11.87;70.35;95011.25;6219470;23;20728;-86
2023/03/31 02:03:33;;;;;;;4.67;4.20;;;;;;;11.93;70.34;95007.91;6221191;23;20187;-85
2023/03/31 02:06:04;;;;;;;5.67;4.17;;;;;;;11.94;70.44;95005.09;6221324;23;20193;-85
2023/03/31 02:08:38;;;;;;;4.47;3.80;;;;;;;11.95;70.41;94998.94;6221039;23;20162;-85
2023/03/31 02:11:08;;;;;;;4.10;3.70;;;;;;;11.93;70.29;94995.00;6221219;23;20622;-86
2023/03/31 02:13:38;;;;;;;6.00;4.17;;;;;;;11.89;70.20;94993.81;6220844;23;20177;-87
2023/03/31 02:16:09;;;;;;;6.40;4.40;;;;;;;11.86;70.41;94986.47;6220706;23;20212;-85
2023/03/31 02:18:40;;;;;;;6.53;4.27;;;;;;;11.89;70.19;94998.97;6220458;23;20162;-85
2023/03/31 02:21:08;;;;;;;5.30;3.77;;;;;;;11.94;70.86;94988.81;6220569;23;20209;-87
2023/03/31 02:23:38;;;;;;;5.90;4.00;;;;;;;11.94;70.47;94994.78;6219900;23;20180;-87
2023/03/31 02:26:12;;;;;;;5.70;4.20;;;;;;;11.95;70.19;94986.06;6220934;23;20185;-85
2023/03/31 02:28:39;;;;;;;5.13;4.13;;;;;;;11.98;70.12;94977.13;6220433;23;20158;-85
2023/03/31 02:31:19;;;;;;;5.73;4.40;;;;;;;11.96;69.48;94981.69;6220810;23;20204;-86
2023/03/31 02:33:46;;;;;;;6.47;4.20;;;;;;;11.96;69.77;94973.94;6221192;23;20209;-87
2023/03/31 02:36:13;;;;;;;6.13;3.87;;;;;;;11.91;69.62;94979.72;6221428;23;20169;-86
2023/03/31 02:38:44;;;;;;;6.27;4.10;;;;;;;11.90;69.57;94985.88;6221355;23;20183;-87
2023/03/31 02:41:20;;;;;;;6.40;4.40;;;;;;;11.77;69.76;94981.50;6220541;23;20268;-86
2023/03/31 02:43:46;;;;;;;4.33;3.93;;;;;;;11.79;70.13;94983.09;6221275;23;20181;-87
2023/03/31 02:46:13;;;;;;;8.40;4.17;;;;;;;11.80;69.97;94993.19;6221806;23;20490;-85
2023/03/31 02:48:44;;;;;;;5.43;3.67;;;;;;;11.82;70.13;94998.97;6221064;23;20525;-87
2023/03/31 02:51:40;;;;;;;6.40;4.60;;;;;;;11.79;70.53;94990.81;6221475;23;20197;-86
2023/03/31 02:54:23;;;;;;;5.70;3.93;;;;;;;11.75;71.96;95001.50;6220965;23;20242;-86
2023/03/31 02:57:07;;;;;;;4.47;4.00;;;;;;;11.66;71.75;94979.47;6220967;23;20410;-86
2023/03/31 02:59:51;;;;;;;7.00;4.03;;;;;;;11.74;71.86;94976.69;6220001;23;20162;-87
2023/03/31 03:02:26;;;;;;;5.00;4.00;;;;;;;11.78;71.16;94971.97;6218276;23;20206;-85
2023/03/31 03:05:20;;;;;;;6.57;4.20;;;;;;;11.81;71.54;94965.63;6220606;23;20227;-85
2023/03/31 03:07:57;;;;;;;4.43;3.87;;;;;;;11.87;71.47;94960.47;6220706;23;20573;-86
2023/03/31 03:10:33;;;;;;;6.53;4.20;;;;;;;11.86;71.71;94956.31;6221726;23;20437;-85
2023/03/31 03:13:14;;;;;;;6.43;3.67;;;;;;;11.81;72.35;94955.31;6220702;23;20236;-87
2023/03/31 03:15:45;;;;;;;6.40;4.00;;;;;;;11.85;72.73;94956.50;6221325;23;20158;-84
2023/03/31 03:18:13;;;;;;;6.50;4.37;;;;;;;11.91;72.80;94956.50;6222027;23;20196;-86
2023/03/31 03:20:47;;;;;;;5.73;4.37;;;;;;;11.94;73.13;94973.34;6221563;23;20572;-88
2023/03/31 03:23:17;;;;;;;5.47;4.23;;;;;;;11.97;73.23;94986.66;6221352;23;20161;-87
2023/03/31 03:25:46;;;;;;;6.73;4.40;;;;;;;11.93;74.06;94987.25;6221568;23;20204;-87
2023/03/31 03:28:15;;;;;;;6.63;4.30;;;;;;;11.91;74.97;94986.66;6221731;23;20177;-86
2023/03/31 03:30:41;;;;;;;5.70;4.13;;;;;;;11.87;75.65;94977.72;6219966;23;20277;-86
2023/03/31 03:33:15;;;;;;;9.87;4.40;;;;;;;11.78;75.96;94987.44;6221387;23;20242;-87
2023/03/31 03:35:42;;;;;;;7.13;4.57;;;;;;;11.80;75.75;94984.66;6221535;23;20165;-88
2023/03/31 03:38:09;;;;;;;5.83;4.57;;;;;;;11.65;76.96;95003.69;6219741;23;20186;-86
2023/03/31 03:40:45;;;;;;;6.60;4.33;;;;;;;11.55;77.91;95008.41;6220939;23;20252;-87
2023/03/31 03:43:18;;;;;;;5.30;3.90;;;;;;;11.50;79.14;95012.59;6221725;23;20185;-87
2023/03/31 03:45:49;;;;;;;6.83;4.43;;;;;;;11.41;81.54;95012.75;6221710;23;20233;-87
2023/03/31 03:48:16;;;;;;;6.37;4.40;;;;;;;11.41;81.92;95007.59;6220896;23;20165;-87
2023/03/31 03:50:42;;;;;;;5.93;3.93;;;;;;;11.39;82.61;95006.22;6221209;23;20236;-87
2023/03/31 03:53:09;;;;;;;6.50;4.47;;;;;;;11.41;85.03;94997.28;6221101;23;20201;-86
2023/03/31 03:55:38;;;;;;;7.33;4.50;;;;;;;11.46;84.18;94986.41;6222569;23;20210;-87
2023/03/31 03:58:04;;;;;;;6.43;4.40;;;;;;;11.41;85.33;94981.03;6221379;23;20197;-87
2023/03/31 04:00:32;;;;;;;9.60;5.00;;;;;;;11.44;85.64;94962.59;6219562;23;20196;-87
2023/03/31 04:02:59;;;;;;;8.00;4.50;;;;;;;11.43;86.60;94966.97;6220808;23;20260;-88
2023/03/31 04:05:26;;;;;;;6.57;4.63;;;;;;;11.48;86.48;94952.69;6220195;23;20177;-88
2023/03/31 04:07:55;;;;;;;8.23;4.47;;;;;;;11.49;87.74;94947.34;6220217;23;20184;-88
2023/03/31 04:10:21;;;;;;;6.70;4.63;;;;;;;11.52;86.95;94948.75;6220606;23;20178;-86
2023/03/31 04:12:48;;;;;;;7.20;4.90;;;;;;;11.54;88.14;94939.03;6220189;23;20181;-86
2023/03/31 04:15:17;;;;;;;8.00;5.20;;;;;;;11.58;88.17;94940.19;6220351;23;20257;-88
2023/03/31 04:17:49;;;;;;;6.30;5.00;;;;;;;11.60;89.00;94930.47;6221532;23;20465;-88
2023/03/31 04:20:17;;;;;;;7.27;4.57;;;;;;;11.59;88.86;94921.97;6222814;23;20189;-88
2023/03/31 04:22:46;;;;;;;8.57;4.80;;;;;;;11.58;89.28;94915.22;6221671;23;20173;-86
2023/03/31 04:25:15;;;;;;;8.33;5.00;;;;;;;11.63;88.41;94914.63;6222944;23;20236;-87
2023/03/31 04:27:45;;;;;;;8.00;5.50;;;;;;;11.64;88.85;94908.47;6223898;23;20173;-88
2023/03/31 04:30:13;;;;;;;6.20;4.80;;;;;;;11.60;88.47;94900.34;6223039;23;20166;-86
2023/03/31 04:32:39;;;;;;;8.67;5.03;;;;;;;11.60;88.99;94895.19;6222608;23;20807;-88
2023/03/31 04:35:08;;;;;;;6.70;5.13;;;;;;;11.60;89.77;94871.19;6222389;23;20198;-86
2023/03/31 04:37:37;;;;;;;8.33;5.40;;;;;;;11.57;89.22;94866.44;6222973;23;20177;-88
2023/03/31 04:40:08;;;;;;;6.97;5.07;;;;;;;11.58;90.67;94863.66;6222413;23;20177;-86
2023/03/31 04:42:35;;;;;;;7.40;5.07;;;;;;;11.57;92.37;94867.22;6222555;23;20232;-88
2023/03/31 04:45:02;;;;;;;7.43;5.30;;;;;;;11.63;90.96;94876.75;6222837;23;20220;-87
2023/03/31 04:47:29;;;;;;;7.00;5.33;;;;;;;11.65;91.64;94873.97;6223589;23;20209;-86
2023/03/31 04:49:55;;;;;;;6.13;4.93;;;;;;;11.68;91.77;94869.22;6223817;23;20177;-88
2023/03/31 04:52:23;;;;;;;7.93;5.70;;;;;;;11.65;92.75;94866.22;6222192;23;20684;-87
2023/03/31 04:54:53;;;;;;;8.30;5.60;;;;;;;11.40;95.04;94846.22;6223137;23;20197;-86
2023/03/31 04:57:20;;;;;;;6.87;5.80;;;;;;;11.25;96.64;94819.06;6223236;23;20178;-87
2023/03/31 04:59:47;;;;;;;10.37;5.93;;;;;;;11.07;97.95;94789.56;6223015;23;20178;-86
2023/03/31 05:02:14;;;;;;;10.13;6.33;;;;;;;10.89;99.84;94783.41;6222275;23;20205;-87
2023/03/31 05:04:46;;;;;;;7.30;5.90;;;;;;;10.81;100.00;94768.16;6222986;23;20173;-88
2023/03/31 05:07:12;;;;;;;7.07;5.97;;;;;;;10.76;100.00;94761.03;6223062;23;20248;-86
2023/03/31 05:09:41;;;;;;;7.40;6.10;;;;;;;10.86;99.90;94763.19;6223447;23;20185;-86
2023/03/31 05:12:11;;;;;;;7.17;5.53;;;;;;;10.94;98.42;94768.16;6222749;23;20200;-86
2023/03/31 05:14:40;;;;;;;7.33;5.83;;;;;;;10.99;97.85;94756.25;6222939;23;20201;-88
2023/03/31 05:17:08;;;;;;;8.93;5.63;;;;;;;10.90;99.08;94748.94;6223223;23;20205;-87
2023/03/31 05:19:38;;;;;;;8.13;6.07;;;;;;;10.83;100.00;94738.63;6221307;23;20663;-85
2023/03/31 05:22:04;;;;;;;8.60;6.47;;;;;;;10.80;100.00;94723.59;6222570;23;20258;-87
2023/03/31 05:24:33;;;;;;;11.20;6.33;;;;;;;10.63;100.00;94717.25;6223180;23;20180;-87
2023/03/31 05:27:01;;;;;;;10.17;6.40;;;;;;;10.54;100.00;94708.16;6222363;23;20188;-87
2023/03/31 05:29:28;;;;;;;9.37;6.30;;;;;;;10.48;100.00;94717.44;6222607;23;20224;-87
2023/03/31 05:31:54;;;;;;;7.63;6.37;;;;;;;10.56;100.00;94709.53;6222405;23;20281;-87
2023/03/31 05:34:21;;;;;;;8.10;6.40;;;;;;;10.64;100.00;94711.91;6221798;23;20193;-86
2023/03/31 05:36:49;;;;;;;10.70;6.30;;;;;;;10.70;100.00;94693.09;6222111;23;20178;-87
2023/03/31 05:39:16;;;;;;;9.17;6.33;;;;;;;10.60;100.00;94686.75;6223036;23;20268;-86
2023/03/31 05:41:42;;;;;;;6.77;6.03;;;;;;;10.47;100.00;94668.75;6221851;23;20221;-87
2023/03/31 05:44:10;;;;;;;8.80;6.07;;;;;;;10.45;100.00;94666.38;6222757;23;20158;-87
2023/03/31 05:46:36;;;;;;;8.13;6.40;;;;;;;10.48;100.00;94649.75;6222534;23;20178;-86
2023/03/31 05:49:03;;;;;;;6.93;6.17;;;;;;;10.50;100.00;94640.84;6221764;23;20177;-87
2023/03/31 05:51:29;;;;;;;9.43;6.13;;;;;;;10.55;100.00;94638.47;6221981;23;20208;-86
2023/03/31 05:53:56;;;;;;;8.87;6.20;;;;;;;10.66;100.00;94637.06;6221677;23;20432;-87
2023/03/31 05:56:22;;;;;;;8.53;6.60;;;;;;;10.58;100.00;94630.31;6221988;23;20699;-86
2023/03/31 05:58:49;;;;;;;7.73;6.10;;;;;;;10.55;100.00;94619.66;6221534;23;20552;-87
2023/03/31 06:01:19;;;;;;;10.53;5.67;;;;;;;10.63;100.00;94627.16;6219949;23;20209;-87
2023/03/31 06:03:46;;;;;;;6.73;5.80;;;;;;;10.55;100.00;94609.38;6222443;23;20212;-86
2023/03/31 06:06:13;;;;;;;7.23;5.60;;;;;;;10.59;100.00;94598.44;6222007;23;20540;-86
2023/03/31 06:08:40;;;;;;;7.47;5.57;;;;;;;10.60;100.00;94594.88;6222242;23;20173;-86
2023/03/31 06:11:08;;;;;;;11.03;6.10;;;;;;;10.65;100.00;94592.50;6221661;23;20243;-86
2023/03/31 06:13:35;;;;;;;7.37;6.00;;;;;;;10.65;100.00;94581.41;6221567;23;20173;-86
2023/03/31 06:16:02;;;;;;;9.73;6.37;;;;;;;10.64;100.00;94580.63;6221806;23;20177;-87
2023/03/31 06:18:32;;;;;;;7.97;6.10;;;;;;;10.64;100.00;94561.81;6221200;23;20185;-86
2023/03/31 06:20:59;;;;;;;8.17;6.47;;;;;;;10.66;100.00;94549.53;6220159;23;20696;-86
2023/03/31 06:23:26;;;;;;;9.57;6.23;;;;;;;10.68;100.00;94547.56;6220858;23;20174;-86
2023/03/31 06:25:53;;;;;;;11.33;5.77;;;;;;;10.71;100.00;94539.44;6220695;23;20173;-87
2023/03/31 06:28:21;;;;;;;10.97;5.30;;;;;;;10.77;100.00;94541.22;6221698;23;20212;-86
2023/03/31 06:30:48;;;;;;;7.77;5.80;;;;;;;10.81;100.00;94536.41;6222195;23;20198;-87
2023/03/31 06:33:15;;;;;;;8.57;6.67;;;;;;;10.82;100.00;94538.78;6221636;23;20181;-87
2023/03/31 06:35:43;;;;;;;9.23;5.83;;;;;;;10.80;100.00;94534.84;6219005;23;20204;-86
2023/03/31 06:38:09;;;;;;;5.70;5.10;;;;;;;10.82;100.00;94527.69;6219761;23;20212;-88
2023/03/31 06:40:35;;;;;;;7.40;5.37;;;;;;;10.80;100.00;94529.69;6220409;23;20198;-87
2023/03/31 06:43:02;;;;;;;7.30;5.27;;;;;;;10.77;100.00;94530.13;6220583;23;20188;-87
2023/03/31 06:45:28;;;;;;;8.07;5.40;;;;;;;10.79;100.00;94515.22;6220574;23;20213;-86
2023/03/31 06:47:54;;;;;;;9.10;5.33;;;;;;;10.88;100.00;94514.03;6221553;23;20204;-87
2023/03/31 06:50:21;;;;;;;6.97;5.23;;;;;;;10.90;100.00;94510.25;6221660;23;20414;-87
2023/03/31 06:52:51;;;;;;;8.27;5.23;;;;;;;11.05;99.75;94515.13;6220488;23;20221;-86
2023/03/31 06:55:18;;;;;;;6.43;5.33;;;;;;;11.09;99.04;94521.47;6221501;23;20216;-85
2023/03/31 06:57:44;;;;;;;8.07;5.27;;;;;;;11.22;98.19;94530.91;6221030;23;20429;-85
2023/03/31 07:00:12;;;;;;;6.00;5.20;;;;;;;11.32;97.63;94541.56;6221660;23;20184;-87
2023/03/31 07:02:38;;;;;;;12.30;5.33;;;;;;;11.39;96.87;94539.72;6219411;23;20189;-86
2023/03/31 07:05:05;;;;;;;8.93;4.90;;;;;;;11.43;96.24;94561.50;6220725;23;20486;-86
2023/03/31 07:07:32;;;;;;;7.63;4.97;;;;;;;11.44;95.57;94575.97;6220712;23;20173;-86
2023/03/31 07:10:00;;;;;;;5.77;4.70;;;;;;;11.46;94.61;94624.75;6219975;23;20211;-86
2023/03/31 07:12:26;;;;;;;8.17;4.93;;;;;;;11.48;95.89;94633.88;6219993;23;20696;-86
2023/03/31 07:14:53;;;;;;;6.60;5.17;;;;;;;11.34;97.59;94624.63;6220715;23;20205;-86
2023/03/31 07:17:19;;;;;;;8.70;5.40;;;;;;;11.31;100.00;94648.22;6219520;23;20669;-86
2023/03/31 07:19:47;;;;;;;6.77;5.10;;;;;;;11.24;100.00;94647.44;6221825;23;20178;-85
2023/03/31 07:22:13;;;;;;;7.23;5.50;;;;;;;11.29;100.00;94645.84;6221430;23;20198;-87
2023/03/31 07:24:40;;;;;;;15.43;11.50;;;;;;;11.28;100.00;94676.97;6220560;23;20184;-86
2023/03/31 07:27:08;;;;;;;47.60;36.70;;;;;;;11.25;100.00;94675.56;6221108;23;20174;-85
2023/03/31 07:29:34;;;;;;;15.67;11.77;;;;;;;11.29;100.00;94679.34;6219688;23;20204;-87
2023/03/31 07:32:00;;;;;;;12.27;8.50;;;;;;;11.36;100.00;94666.41;6219526;23;20204;-87
2023/03/31 07:34:27;;;;;;;7.90;6.27;;;;;;;11.36;100.00;94648.38;6220197;23;20451;-85
2023/03/31 07:36:55;;;;;;;9.77;5.70;;;;;;;11.30;100.00;94639.69;6220350;23;20181;-86
2023/03/31 07:39:21;;;;;;;9.10;6.20;;;;;;;11.34;100.00;94625.41;6220793;23;20177;-86
2023/03/31 07:41:48;;;;;;;8.77;5.60;;;;;;;11.35;100.00;94621.03;6219466;23;20206;-86
2023/03/31 07:44:16;;;;;;;7.13;5.77;;;;;;;11.38;100.00;94608.53;6220732;23;20161;-86
2023/03/31 07:46:42;;;;;;;11.87;6.40;;;;;;;11.43;100.00;94603.53;6220066;23;20273;-88
2023/03/31 07:49:09;;;;;;;6.10;5.50;;;;;;;11.51;100.00;94575.97;6221860;23;20182;-87
2023/03/31 07:51:35;;;;;;;10.30;6.97;;;;;;;11.56;100.00;94596.72;6221867;23;20197;-86
2023/03/31 07:54:02;;;;;;;9.07;5.93;;;;;;;11.54;100.00;94570.41;6224265;23;20181;-87
2023/03/31 07:56:28;;;;;;;11.43;8.13;;;;;;;11.53;100.00;94561.09;6222569;23;20204;-87
2023/03/31 07:58:55;;;;;;;9.17;6.37;;;;;;;11.39;100.00;94553.41;6223830;23;20189;-86
2023/03/31 08:01:24;;;;;;;7.70;6.33;;;;;;;11.25;100.00;94538.22;6222622;23;20198;-86
2023/03/31 08:03:53;;;;;;;9.07;6.50;;;;;;;11.17;100.00;94531.50;6224095;23;20181;-88
2023/03/31 08:06:21;;;;;;;7.63;6.00;;;;;;;11.17;100.00;94507.53;6223232;23;20208;-86
2023/03/31 08:08:47;;;;;;;7.93;6.30;;;;;;;11.18;100.00;94502.19;6223810;23;20177;-87
2023/03/31 08:11:14;;;;;;;7.30;6.07;;;;;;;11.29;100.00;94513.63;6223079;23;20209;-86
2023/03/31 08:13:40;;;;;;;8.63;6.90;;;;;;;11.37;100.00;94503.06;6222072;23;20193;-85
2023/03/31 08:16:07;;;;;;;8.27;6.30;;;;;;;11.39;100.00;94507.00;6222193;23;20197;-86
2023/03/31 08:18:35;;;;;;;7.93;6.07;;;;;;;11.44;100.00;94516.72;6222963;23;20204;-87
2023/03/31 08:21:01;;;;;;;9.83;6.43;;;;;;;11.52;100.00;94508.75;6222528;23;20197;-86
2023/03/31 08:23:28;;;;;;;10.60;6.00;;;;;;;11.58;100.00;94513.03;6222373;23;20177;-86
2023/03/31 08:25:54;;;;;;;9.20;6.47;;;;;;;11.53;100.00;94497.44;6223149;23;20272;-88
2023/03/31 08:28:21;;;;;;;9.17;6.37;;;;;;;11.43;100.00;94505.59;6223941;23;20496;-87
2023/03/31 08:30:47;;;;;;;8.30;5.83;;;;;;;11.32;100.00;94488.25;6223293;23;20200;-86
2023/03/31 08:33:13;;;;;;;9.47;6.13;;;;;;;11.33;100.00;94500.13;6218658;23;20177;-86
2023/03/31 08:35:41;;;;;;;8.60;5.97;;;;;;;11.46;100.00;94503.63;6222057;23;20900;-88
2023/03/31 08:38:07;;;;;;;8.73;6.10;;;;;;;11.55;100.00;94481.72;6222592;23;20237;-86
2023/03/31 08:40:34;;;;;;;8.73;6.43;;;;;;;11.58;100.00;94501.94;6222003;23;20224;-85
2023/03/31 08:43:06;;;;;;;9.77;6.17;;;;;;;11.59;99.20;94511.25;6221173;23;20189;-85
2023/03/31 08:45:35;;;;;;;6.53;5.60;;;;;;;11.55;98.12;94521.19;6222474;23;20212;-87
2023/03/31 08:48:06;;;;;;;9.27;6.77;;;;;;;11.61;97.29;94528.09;6221518;23;20177;-87
2023/03/31 08:50:37;;;;;;;4.57;4.00;;;;;;;11.59;92.12;94562.81;6222000;23;20212;-86
2023/03/31 08:53:07;;;;;;;6.10;4.30;;;;;;;11.56;91.85;94551.13;6223061;23;20189;-86
2023/03/31 08:55:43;;;;;;;5.73;3.90;;;;;;;11.51;92.24;94556.13;6223628;23;20184;-86
2023/03/31 08:58:19;;;;;;;6.03;3.80;;;;;;;11.48;88.17;94566.84;6223909;23;20174;-86
2023/03/31 09:00:51;;;;;;;4.60;3.30;;;;;;;11.59;87.76;94583.44;6223469;23;20197;-86
2023/03/31 09:03:28;;;;;;;6.33;3.87;;;;;;;11.63;88.95;94572.50;6222515;23;20158;-87
2023/03/31 09:06:01;;;;;;;3.20;2.90;;;;;;;11.73;86.27;94569.50;6220716;23;20157;-87
2023/03/31 09:08:35;;;;;;;4.10;3.43;;;;;;;11.77;86.49;94563.72;6223553;23;20214;-86
2023/03/31 09:11:14;;;;;;;3.30;3.00;;;;;;;11.81;86.07;94569.25;6223401;23;20197;-86
2023/03/31 09:14:10;;;;;;;5.37;3.70;;;;;;;11.88;86.77;94570.00;6223339;23;20567;-86
2023/03/31 09:16:41;;;;;;;5.40;3.23;;;;;;;11.99;86.38;94537.56;6221992;23;20177;-86
2023/03/31 09:19:14;;;;;;;5.43;3.40;;;;;;;12.13;85.97;94548.56;6216079;23;20569;-86
2023/03/31 09:21:49;;;;;;;4.53;3.03;;;;;;;12.30;85.24;94537.53;6214962;23;20216;-86
2023/03/31 09:24:20;;;;;;;5.23;3.30;;;;;;;12.67;81.84;94534.97;6218834;23;20211;-86
2023/03/31 09:26:52;;;;;;;4.33;3.13;;;;;;;13.46;79.85;94521.13;6222780;23;20409;-87
2023/03/31 09:29:26;;;;;;;6.50;3.20;;;;;;;14.10;76.56;94509.19;6218823;23;20162;-87
2023/03/31 09:31:56;;;;;;;3.73;2.90;;;;;;;14.21;73.20;94511.03;6221142;23;20193;-88
2023/03/31 09:34:28;;;;;;;3.17;2.70;;;;;;;14.90;72.06;94511.19;6222147;23;20532;-85
2023/03/31 09:36:54;;;;;;;3.83;2.70;;;;;;;14.76;68.54;94498.50;6219966;23;20512;-88
2023/03/31 09:39:22;;;;;;;2.67;2.30;;;;;;;14.74;66.23;94484.19;6222556;23;20439;-88
2023/03/31 09:41:55;;;;;;;3.35;2.22;;;;;;;15.03;67.29;94485.00;6221351;23;20205;-88
2023/03/31 09:44:26;;;;;;;2.67;2.25;;;;;;;15.34;66.21;94466.41;6223524;23;20162;-88
2023/03/31 09:46:54;;;;;;;3.35;2.17;;;;;;;15.67;65.23;94472.69;6220029;23;20374;-89
2023/03/31 09:49:22;;;;;;;3.00;2.70;;;;;;;15.91;65.91;94474.09;6221981;23;20181;-87
2023/03/31 09:51:57;;;;;;;2.80;2.08;;;;;;;15.98;61.40;94472.13;6222437;23;20194;-88
2023/03/31 09:54:29;;;;;;;2.17;2.00;;;;;;;15.99;61.05;94471.09;6221221;23;20168;-87
2023/03/31 09:56:59;;;;;;;2.20;2.00;;;;;;;15.82;60.85;94465.91;6219842;23;20189;-87
2023/03/31 09:59:33;;;;;;;3.25;2.50;;;;;;;16.11;60.76;94477.00;6219039;23;20181;-88
2023/03/31 10:02:03;;;;;;;3.53;1.95;;;;;;;15.64;61.42;94473.16;6216957;23;20267;-86
2023/03/31 10:04:34;;;;;;;1.95;1.70;;;;;;;15.28;63.27;94469.91;6218797;23;20173;-87
2023/03/31 10:07:04;;;;;;;3.25;2.20;;;;;;;15.66;62.14;94452.94;6219117;23;20181;-87
2023/03/31 10:09:34;;;;;;;3.00;2.40;;;;;;;16.01;63.19;94450.09;6221578;23;20212;-87
2023/03/31 10:12:04;;;;;;;2.10;1.90;;;;;;;16.09;59.35;94447.91;6218426;23;20208;-86
2023/03/31 10:14:40;;;;;;;2.70;2.20;;;;;;;16.32;59.36;94446.91;6218779;23;20193;-87
2023/03/31 10:17:07;;;;;;;3.60;2.15;;;;;;;16.27;57.88;94451.25;6219413;23;20301;-87
2023/03/31 10:19:36;;;;;;;2.97;2.42;;;;;;;16.16;59.01;94434.75;6220715;23;20178;-88
2023/03/31 10:22:05;;;;;;;3.42;2.00;;;;;;;16.21;58.60;94427.00;6219302;23;20248;-87
2023/03/31 10:24:41;;;;;;;2.55;2.33;;;;;;;16.07;60.13;94430.97;6220278;23;20173;-87
2023/03/31 10:27:22;;;;;;;2.80;2.28;;;;;;;16.04;60.79;94414.06;6220449;23;20224;-87
2023/03/31 10:29:52;;;;;;;3.10;2.50;;;;;;;16.06;60.73;94417.22;6220459;23;20164;-86
2023/03/31 10:32:24;;;;;;;4.00;2.40;;;;;;;15.82;61.93;94411.41;6219062;23;20202;-87
2023/03/31 10:34:51;;;;;;;3.35;2.47;;;;;;;16.13;62.32;94391.88;6221894;23;20169;-86
2023/03/31 10:37:21;;;;;;;3.63;2.45;;;;;;;16.51;60.37;94393.63;6220801;23;20200;-87
2023/03/31 10:39:57;;;;;;;3.78;2.45;;;;;;;16.30;60.32;94375.44;6219612;23;20157;-86
2023/03/31 10:42:25;;;;;;;3.38;2.40;;;;;;;16.14;60.96;94393.44;6217668;23;20690;-85
2023/03/31 10:45:11;;;;;;;3.10;2.63;;;;;;;15.91;61.49;94393.63;6219552;23;20177;-87
2023/03/31 10:47:39;;;;;;;2.95;2.55;;;;;;;15.51;61.40;94380.81;6219797;23;20174;-86
2023/03/31 10:50:13;;;;;;;3.55;2.60;;;;;;;15.33;62.46;94386.25;6220596;23;20184;-87
2023/03/31 10:52:44;;;;;;;3.42;3.03;;;;;;;15.20;62.46;94382.91;6220768;23;20158;-87
2023/03/31 10:55:14;;;;;;;3.30;2.72;;;;;;;15.53;62.79;94373.59;6220537;23;20220;-87
2023/03/31 10:57:48;;;;;;;3.03;2.70;;;;;;;15.73;61.50;94360.94;6220372;23;20204;-85
2023/03/31 11:00:24;;;;;;;3.30;2.97;;;;;;;15.62;62.39;94353.25;6219650;23;20169;-86
2023/03/31 11:03:27;;;;;;;4.38;2.97;;;;;;;15.57;62.66;94360.97;6218888;23;20240;-86
2023/03/31 11:05:59;;;;;;;4.38;2.83;;;;;;;15.35;63.36;94346.09;6219990;23;20164;-86
2023/03/31 11:08:42;;;;;;;4.65;3.60;;;;;;;15.18;63.60;94345.31;6217936;23;20212;-86
2023/03/31 11:11:24;;;;;;;3.75;2.60;;;;;;;14.89;63.16;94346.34;6217948;23;20197;-86
2023/03/31 11:14:00;;;;;;;2.90;2.60;;;;;;;14.79;64.88;94339.19;6220097;23;20172;-87
2023/03/31 11:16:33;;;;;;;5.50;2.95;;;;;;;14.71;65.33;94368.84;6220044;23;20181;-86
2023/03/31 11:19:15;;;;;;;2.63;2.38;;;;;;;14.73;66.80;94384.94;6221437;23;20161;-86
2023/03/31 11:21:55;;;;;;;4.18;2.78;;;;;;;14.52;67.29;94471.06;6220495;23;20518;-87
2023/03/31 11:24:35;;;;;;;1.80;1.63;;;;;;;13.82;66.43;94477.00;6221208;23;20161;-86
2023/03/31 11:27:17;;;;;;;2.47;1.25;;;;;;;13.29;68.22;94458.91;6221523;23;20164;-86
2023/03/31 11:29:48;;;;;;;1.50;1.20;;;;;;;12.89;70.12;94447.50;6220722;23;20169;-87
2023/03/31 11:32:33;;;;;;;2.50;1.15;;;;;;;12.64;69.83;94411.47;6220273;23;20198;-88
2023/03/31 11:35:13;;;;;;;2.80;1.20;;;;;;;12.42;70.61;94395.63;6220589;23;20208;-86
2023/03/31 11:37:53;;;;;;;1.37;1.23;;;;;;;12.44;71.51;94407.31;6221146;23;20217;-85
2023/03/31 11:40:33;;;;;;;1.93;1.10;;;;;;;12.56;71.46;94404.00;6220494;23;20192;-86
2023/03/31 11:43:07;;;;;;;1.33;1.10;;;;;;;12.66;71.67;94381.84;6219878;23;20185;-86
2023/03/31 11:45:41;;;;;;;3.00;1.23;;;;;;;12.73;70.62;94371.41;6218772;23;20229;-87
2023/03/31 11:48:17;;;;;;;2.90;2.63;;;;;;;12.75;69.97;94344.34;6220230;23;20627;-86
2023/03/31 11:50:47;;;;;;;2.33;1.30;;;;;;;12.69;70.60;94347.84;6219897;23;20197;-85